Terminal Aerodrome Forecast
Issued by NWS Greer, SC

Home | Current Version | Previous Version | Text Only | Print | Product List | Glossary On
Versions: 1 2 3 4 5 6 7 8 9 10 11 12 13 14 15 16 17 18 19 20 21 22 23 24 25 26 27 28 29 30 31 32 33 34 35 36 37 38 39 40 41 42 43 44 45 46 47 48 49 50
000
FTUS42 KGSP 261100
TAFAVL
TAF
KAVL 261137Z 2612/2712 34008KT 5SM BR OVC005
      TEMPO 2612/2613 2SM BR OVC002
     FM261330 34008KT P6SM FEW100 BKN250
     FM261800 22006KT P6SM SCT050
     FM270200 00000KT P6SM SCT070 BKN250
     FM270700 34003KT 4SM BR SCT120 BKN250=

USA.gov is the U.S. government's official web portal to all federal, state and local government web resources and services.